Farmington Regional Airport


Codes: KFAM/FAM
Name: Farmington Regional Airport
City: Farmington
Country: United States
Elevation: 946 ft.
Website:

Photos at Farmington Regional Airport


   Photos courtesy of SpottingLog. You can add your own sightings and photos by signing up for a free trial today.



No photos found.

Weather at Farmington Regional Airport


Time (UTC)DescriptionTempratureWindCloud coverageVisibilityPressureHumidity
13-Jun-2024 03:00Clear Sky25°C7 mph, S0%10000m1015hPa63%
13-Jun-2024 06:00Clear Sky21°C7 mph, S0%10000m1014hPa74%
13-Jun-2024 09:00Clear Sky17°C4 mph, S3%10000m1013hPa81%
13-Jun-2024 12:00Clear Sky18°C4 mph, SW3%10000m1015hPa82%
13-Jun-2024 15:00Clear Sky26°C9 mph, SW0%10000m1014hPa56%
13-Jun-2024 18:00Clear Sky31°C9 mph, SW0%10000m1013hPa45%
13-Jun-2024 21:00Clear Sky33°C7 mph, SW0%10000m1012hPa42%
14-Jun-2024 00:00Clear Sky28°C7 mph, S0%10000m1012hPa62%
14-Jun-2024 03:00Clear Sky22°C4 mph, S2%10000m1013hPa87%
14-Jun-2024 06:00Light Rain20°C4 mph, SW18%10000m1014hPa92%
14-Jun-2024 09:00Light Rain19°C4 mph, SW100%10000m1014hPa91%
14-Jun-2024 12:00Broken Clouds21°C4 mph, SW74%10000m1015hPa92%
14-Jun-2024 15:00Scattered Clouds28°C9 mph, NW36%10000m1015hPa68%
14-Jun-2024 18:00Light Rain28°C9 mph, N48%10000m1015hPa78%
14-Jun-2024 21:00Light Rain28°C9 mph, N50%10000m1015hPa71%
15-Jun-2024 00:00Broken Clouds26°C9 mph, NE62%10000m1015hPa77%
15-Jun-2024 03:00Scattered Clouds22°C4 mph, E43%10000m1016hPa92%
15-Jun-2024 06:00Few Clouds19°C4 mph, NE24%10000m1017hPa96%
15-Jun-2024 09:00Broken Clouds18°C4 mph, E73%10000m1016hPa91%
15-Jun-2024 12:00Overcast Clouds18°C4 mph, SE86%10000m1017hPa84%
15-Jun-2024 15:00Overcast Clouds22°C7 mph, SE89%10000m1017hPa82%
15-Jun-2024 18:00Light Rain28°C9 mph, SE94%10000m1015hPa67%
15-Jun-2024 21:00Broken Clouds30°C9 mph, S60%10000m1013hPa60%
16-Jun-2024 00:00Light Rain26°C7 mph, SE71%10000m1012hPa84%
16-Jun-2024 03:00Light Rain23°C4 mph, SE15%10000m1013hPa96%
16-Jun-2024 06:00Clear Sky22°C7 mph, SE8%10000m1013hPa97%
16-Jun-2024 09:00Clear Sky21°C7 mph, S8%10000m1013hPa98%
16-Jun-2024 12:00Few Clouds22°C7 mph, S12%10000m1013hPa97%
16-Jun-2024 15:00Clear Sky29°C11 mph, SW2%10000m1013hPa60%
16-Jun-2024 18:00Clear Sky34°C11 mph, SW1%10000m1012hPa44%
16-Jun-2024 21:00Broken Clouds33°C11 mph, S71%10000m1011hPa48%
17-Jun-2024 00:00Heavy Intensity Rain21°C7 mph, SE69%10000m1012hPa93%
17-Jun-2024 03:00Light Rain21°C4 mph, SE33%10000m1014hPa94%
17-Jun-2024 06:00Light Rain22°C7 mph, S27%10000m1013hPa95%
17-Jun-2024 09:00Scattered Clouds21°C4 mph, S30%10000m1014hPa96%
17-Jun-2024 12:00Few Clouds22°C9 mph, S16%10000m1014hPa94%
17-Jun-2024 15:00Clear Sky28°C9 mph, S0%10000m1015hPa66%
17-Jun-2024 18:00Clear Sky33°C13 mph, S8%10000m1014hPa49%
17-Jun-2024 21:00Overcast Clouds32°C13 mph, S100%10000m1013hPa47%
18-Jun-2024 00:00Overcast Clouds28°C13 mph, S100%10000m1014hPa66%